This is the latest recevied weather packets stored in our database for station/object OK1HOL-13. If no packets are shown the sender has not sent any weather packets the latest 1 day(s).
| Time | Temp. | Humidity | Pressure | Rain* | Wind** | Luminosity | Snow |
|---|---|---|---|---|---|---|---|
| 1778072763 | 25° C | 34% | 1005.4 hPa | - | - | 431 W/m² | - |
| 1778072163 | 23.89° C | 36% | 1005.6 hPa | - | - | 431 W/m² | - |
| 1778071563 | 25.56° C | 35% | 1005.7 hPa | - | - | 431 W/m² | - |
| 1778070963 | 23.89° C | 37% | 1005.8 hPa | - | - | 431 W/m² | - |
| 1778070363 | 25.56° C | 35% | 1006.1 hPa | - | - | 176 W/m² | - |
| 1778069763 | 24.44° C | 37% | 1006.2 hPa | - | - | 431 W/m² | - |
| 1778069163 | 23.33° C | 38% | 1006.3 hPa | - | - | 168 W/m² | - |
| 1778068563 | 23.33° C | 37% | 1006.3 hPa | - | - | 431 W/m² | - |
| 1778067963 | 23.89° C | 37% | 1006.2 hPa | - | - | 431 W/m² | - |
| 1778066763 | 21.67° C | 40% | 1006.6 hPa | - | - | 431 W/m² | - |
| 1778066163 | 22.22° C | 39% | 1006.7 hPa | - | - | 431 W/m² | - |
| 1778064363 | 20.56° C | 45% | 1006.9 hPa | - | - | 431 W/m² | - |
| 1778063763 | 20° C | 48% | 1006.9 hPa | - | - | 431 W/m² | - |
| 1778063163 | 20° C | 48% | 1007 hPa | - | - | 177 W/m² | - |
| 1778062563 | 19.44° C | 50% | 1006.9 hPa | - | - | 269 W/m² | - |
| 1778061363 | 19.44° C | 50% | 1007 hPa | - | - | 185 W/m² | - |
| 1778060763 | 20° C | 49% | 1007 hPa | - | - | 209 W/m² | - |
| 1778060163 | 19.44° C | 50% | 1006.9 hPa | - | - | 157 W/m² | - |
| 1778059563 | 20° C | 50% | 1006.9 hPa | - | - | 427 W/m² | - |
| 1778058963 | 19.44° C | 51% | 1007 hPa | - | - | 431 W/m² | - |
| 1778058363 | 18.89° C | 52% | 1007 hPa | - | - | 418 W/m² | - |
| 1778057763 | 18.33° C | 53% | 1007 hPa | - | - | 250 W/m² | - |
| 1778057163 | 18.33° C | 55% | 1007 hPa | - | - | 431 W/m² | - |
| 1778055963 | 17.78° C | 58% | 1007 hPa | - | - | 125 W/m² | - |
| 1778055363 | 17.78° C | 59% | 1007 hPa | - | - | 97 W/m² | - |
* Rain since midnight (hover to see other rain measurements)
** Current wind speed in m/s (hover to see current wind gust speed)